Pride — ZDFD7 — position and weather

sailwx.info

Track history (hours):
 
Tides and Currents Weather Stations Pressure Air Temp Water Temp Dewpoint Dewpoint Depression Visibility Wind Speed Wind Dir Waves Ship Positions

Pride

Last reported at 2015-Jul-28 01:27 UTC. Time now 2015-Jul-30 22:59 UTC.
Position N 59°19' E 004°41'.

Length 88 m; draft 3.8 m.

Type: Ship. MMSI: 236166000.

Date/timePositionNaut miles runAvg speedWind from/ knotsBaromVisibWave heightAir tempDewpointWater temp
2015-Jul-28 01:27N 59°19' E 004°41'9 9.7
2015-Jul-28 00:33N 59°11' E 004°48'1010.3
2015-Jul-27 23:33N 59°04' E 005°02'1010.4
2015-Jul-27 22:34N 58°56' E 005°15'9 8.9
2015-Jul-27 21:33N 58°52' E 005°31'4 3.9
2015-Jul-27 20:26N 58°56' E 005°35'0 0.0
2015-Jul-27 19:32N 58°56' E 005°35'0 0.0
2015-Jul-27 18:32N 58°56' E 005°35'0 0.0
2015-Jul-27 17:33N 58°56' E 005°35'0 0.0
2015-Jul-27 16:29N 58°56' E 005°35'0 0.0
2015-Jul-27 15:30N 58°56' E 005°35'0 0.0
2015-Jul-27 14:27N 58°56' E 005°35'0 0.0
2015-Jul-27 13:32N 58°56' E 005°35'0 0.0
2015-Jul-27 12:32N 58°56' E 005°35'0 0.0
2015-Jul-27 11:32N 58°56' E 005°35'0 0.0
2015-Jul-27 10:32N 58°56' E 005°35'0 0.0
2015-Jul-27 09:31N 58°56' E 005°35'0 0.0
2015-Jul-27 08:23N 58°56' E 005°35'0 0.0
2015-Jul-27 07:26N 58°56' E 005°35'0 0.0
2015-Jul-27 06:29N 58°56' E 005°35'0 0.0
2015-Jul-27 05:33N 58°56' E 005°35'0 0.0
2015-Jul-27 04:25N 58°56' E 005°35'0 0.0
2015-Jul-27 03:29N 58°56' E 005°35'0 0.0
2015-Jul-27 02:28N 58°56' E 005°35'0 0.0
2015-Jul-27 01:33N 58°56' E 005°35'0 0.0
2015-Jul-27 00:27N 58°56' E 005°35'0 0.0
2015-Jul-26 23:31N 58°56' E 005°35'0 0.0
2015-Jul-26 22:32N 58°56' E 005°35'0 0.0
2015-Jul-26 21:31N 58°56' E 005°35'0 0.0
2015-Jul-26 20:33N 58°56' E 005°35'0 0.0
2015-Jul-26 19:33N 58°56' E 005°35'0 0.0
2015-Jul-26 18:28N 58°56' E 005°35'0 0.0
2015-Jul-26 17:33N 58°56' E 005°35'0 0.0
2015-Jul-26 16:29N 58°56' E 005°35'0 0.0
2015-Jul-26 15:33N 58°56' E 005°35'0 0.0
2015-Jul-26 13:31N 58°56' E 005°35'0 0.0
2015-Jul-26 12:33N 58°56' E 005°35'0 0.0
2015-Jul-26 11:32N 58°56' E 005°35'0 0.0
2015-Jul-26 10:31N 58°56' E 005°35'0 0.0
2015-Jul-26 09:31N 58°56' E 005°35'0 0.0
2015-Jul-26 08:33N 58°56' E 005°35'0 0.0
2015-Jul-26 07:31N 58°56' E 005°35'0 0.0
2015-Jul-26 06:29N 58°56' E 005°35'0 0.0
2015-Jul-26 05:33N 58°56' E 005°35'0 0.0
2015-Jul-26 04:32N 58°56' E 005°35'0 0.0
2015-Jul-26 03:33N 58°56' E 005°35'0 0.0
2015-Jul-26 02:27N 58°56' E 005°35'0 0.0
2015-Jul-26 01:25N 58°56' E 005°35'0 0.0
2015-Jul-26 00:30N 58°56' E 005°35'0 0.0
2015-Jul-25 23:24N 58°56' E 005°35'0 0.0
2015-Jul-25 22:28N 58°56' E 005°35'0 0.0
2015-Jul-25 21:27N 58°56' E 005°35'0 0.0
2015-Jul-25 20:32N 58°56' E 005°35'0 0.0
2015-Jul-25 19:33N 58°56' E 005°35'0 0.0
2015-Jul-25 18:32N 58°56' E 005°35'0 0.0
2015-Jul-25 17:32N 58°56' E 005°35'0 0.0
2015-Jul-25 16:29N 58°56' E 005°35'0 0.0
2015-Jul-25 15:23N 58°56' E 005°35'0 0.0
2015-Jul-25 14:31N 58°56' E 005°35'4 4.6
2015-Jul-25 13:34N 58°52' E 005°31'6 6.4
2015-Jul-25 12:33N 58°46' E 005°24'178 9.9
2015-Jul-24 18:33N 55°57' E 007°05'2410.5
2015-Jul-24 16:14N 55°34' E 007°20'710.1
2015-Jul-24 15:33N 55°31' E 007°30'10 9.8
2015-Jul-24 14:33N 55°26' E 007°45'9 9.3
2015-Jul-24 13:33N 55°26' E 008°02'2 1.4
2015-Jul-24 12:27N 55°26' E 008°05'0 0.0
2015-Jul-24 11:27N 55°26' E 008°05'0 0.0
2015-Jul-24 09:08N 55°26' E 008°05'0 0.0
2015-Jul-24 08:29N 55°26' E 008°05'0 0.0
2015-Jul-24 07:30N 55°26' E 008°05'0 0.0
2015-Jul-24 06:20N 55°26' E 008°05'0 0.0
2015-Jul-24 05:31N 55°26' E 008°05'0 0.0
2015-Jul-24 03:17N 55°26' E 008°05'0 0.0
2015-Jul-24 01:22N 55°26' E 008°05'0 0.0
2015-Jul-24 00:32N 55°26' E 008°05'0 0.0
2015-Jul-23 22:22N 55°26' E 008°05'0 0.0
2015-Jul-23 21:33N 55°26' E 008°05'0 0.0
2015-Jul-23 14:09N 55°26' E 008°05'0 0.0
2015-Jul-23 12:27N 55°26' E 008°05'0 0.0
2015-Jul-23 11:27N 55°26' E 008°05'0 0.0
2015-Jul-23 10:27N 55°26' E 008°05'0 0.0
2015-Jul-23 08:16N 55°26' E 008°05'0 0.0
2015-Jul-23 07:09N 55°26' E 008°05'0 0.0
2015-Jul-23 05:19N 55°26' E 008°05'0 0.0
2015-Jul-23 04:30N 55°26' E 008°05'0 0.0
2015-Jul-23 03:24N 55°26' E 008°05'0 0.0
2015-Jul-23 02:30N 55°26' E 008°05'0 0.0
2015-Jul-23 01:33N 55°26' E 008°05'0 0.0
2015-Jul-23 00:30N 55°26' E 008°05'0 0.0
2015-Jul-22 23:12N 55°26' E 008°05'0 0.0
2015-Jul-22 22:05N 55°26' E 008°05'0 0.0
2015-Jul-22 20:23N 55°26' E 008°05'0 0.0
2015-Jul-22 19:26N 55°26' E 008°05'0 0.0
2015-Jul-22 14:21N 55°26' E 008°05'0 0.0
2015-Jul-22 13:32N 55°26' E 008°05'0 0.0
2015-Jul-22 12:29N 55°26' E 008°05'0 0.0
2015-Jul-22 11:30N 55°26' E 008°05'0 0.0
2015-Jul-22 10:12N 55°26' E 008°05'0 0.0
2015-Jul-22 09:28N 55°26' E 008°05'0 0.0
2015-Jul-22 08:19N 55°26' E 008°04'0 0.0
2015-Jul-22 07:20N 55°26' E 008°04'0 0.0
2015-Jul-22 06:27N 55°26' E 008°04'0 0.0
2015-Jul-22 05:25N 55°26' E 008°04'0 0.0
2015-Jul-22 04:20N 55°27' E 008°04'0 0.0
2015-Jul-22 03:31N 55°26' E 008°04'0 0.0
2015-Jul-22 02:27N 55°26' E 008°05'0 0.0
2015-Jul-22 00:31N 55°26' E 008°05'0 0.0
2015-Jul-21 23:31N 55°26' E 008°05'0 0.0
2015-Jul-21 22:23N 55°26' E 008°05'0 0.0
2015-Jul-21 21:33N 55°26' E 008°05'0 0.0
2015-Jul-21 20:27N 55°26' E 008°05'0 0.0
2015-Jul-21 19:32N 55°26' E 008°05'0 0.0
2015-Jul-21 18:15N 55°26' E 008°05'0 0.0
2015-Jul-21 17:03N 55°26' E 008°05'0 0.0
2015-Jul-21 13:33N 55°26' E 008°05'0 0.0
2015-Jul-21 11:14N 55°26' E 008°05'0 0.0
2015-Jul-21 10:22N 55°26' E 008°05'0 0.0
2015-Jul-21 09:26N 55°26' E 008°05'0 0.0
2015-Jul-21 07:10N 55°27' E 008°04'0 0.0
2015-Jul-21 06:06N 55°26' E 008°05'0 0.0
2015-Jul-20 23:32N 55°26' E 008°04'0 0.0
2015-Jul-20 22:19N 55°26' E 008°04'0 0.0
2015-Jul-20 20:29N 55°26' E 008°05'0 0.0
2015-Jul-20 19:32N 55°26' E 008°04'0 0.0
2015-Jul-20 18:26N 55°26' E 008°04'0 0.0
2015-Jul-20 16:30N 55°26' E 008°05'0 0.0
2015-Jul-20 12:30N 55°26' E 008°05'0 0.0
2015-Jul-20 07:10N 55°26' E 008°05'0 0.0
2015-Jul-20 02:30N 55°26' E 008°05'0 0.0
2015-Jul-20 01:30N 55°26' E 008°05'0 0.0
2015-Jul-20 00:26N 55°26' E 008°05'0 0.0
2015-Jul-19 22:03N 55°26' E 008°05'0 0.0
2015-Jul-19 21:07N 55°26' E 008°05'0 0.0
2015-Jul-19 20:28N 55°26' E 008°05'0 0.0
2015-Jul-19 19:32N 55°26' E 008°04'0 0.0
2015-Jul-19 18:20N 55°27' E 008°04'0 0.0
2015-Jul-19 17:32N 55°27' E 008°04'0 0.0
2015-Jul-19 16:12N 55°26' E 008°04'0 0.0
2015-Jul-19 15:25N 55°27' E 008°04'0 0.0
2015-Jul-19 12:20N 55°26' E 008°04'0 0.0
2015-Jul-19 11:09N 55°26' E 008°05'0 0.0
2015-Jul-19 10:27N 55°26' E 008°05'0 0.0
2015-Jul-19 09:33N 55°26' E 008°05'0 0.0
2015-Jul-19 08:32N 55°26' E 008°05'0 0.0
2015-Jul-19 07:25N 55°26' E 008°05'0 0.0
2015-Jul-19 06:32N 55°26' E 008°04'0 0.0
2015-Jul-19 05:28N 55°26' E 008°04'0 0.0
2015-Jul-19 04:33N 55°26' E 008°04'0 0.0
2015-Jul-19 00:08N 55°26' E 008°05'0 0.0
2015-Jul-18 23:26N 55°26' E 008°05'0 0.0
2015-Jul-18 22:29N 55°26' E 008°05'0 0.0
2015-Jul-18 21:30N 55°26' E 008°05'0 0.0
2015-Jul-18 20:25N 55°26' E 008°05'0 0.0
2015-Jul-18 19:24N 55°26' E 008°05'0 0.0
2015-Jul-18 18:12N 55°26' E 008°05'0 0.0
2015-Jul-18 17:22N 55°26' E 008°05'0 0.0
2015-Jul-18 16:26N 55°26' E 008°05'0 0.0
2015-Jul-18 14:07N 55°26' E 008°04'0 0.0
2015-Jul-18 12:25N 55°26' E 008°04'2 2.7
2015-Jul-18 11:33N 55°26' E 008°09'7 7.5
2015-Jul-18 10:33N 55°29' E 008°21'4 3.2
2015-Jul-18 09:26N 55°27' E 008°27'0 0.0
2015-Jul-18 08:28N 55°27' E 008°27'0 0.0
2015-Jul-18 07:17N 55°27' E 008°27'0 0.0
2015-Jul-18 06:33N 55°27' E 008°27'0 0.0
2015-Jul-18 05:31N 55°27' E 008°27'0 0.0
2015-Jul-18 04:30N 55°27' E 008°27'0 0.0
2015-Jul-18 03:28N 55°27' E 008°27'0 0.0
2015-Jul-18 02:27N 55°27' E 008°27'  
Track history (hours):
 
Tides and Currents Weather Stations Pressure Air Temp Water Temp Dewpoint Dewpoint Depression Visibility Wind Speed Wind Dir Waves Ship Positions

Pride

Last reported at 2015-Jul-28 01:27 UTC. Time now 2015-Jul-30 22:59 UTC.
Position N 59°19' E 004°41'.

Length 88 m; draft 3.8 m.

Type: Ship. MMSI: 236166000.

Date/timePositionNaut miles runAvg speedWind from/ knotsBaromVisibWave heightAir tempDewpointWater temp
2015-Jul-28 01:27N 59°19' E 004°41'9 9.7
2015-Jul-28 00:33N 59°11' E 004°48'1010.3
2015-Jul-27 23:33N 59°04' E 005°02'1010.4
2015-Jul-27 22:34N 58°56' E 005°15'9 8.9
2015-Jul-27 21:33N 58°52' E 005°31'4 3.9
2015-Jul-27 20:26N 58°56' E 005°35'0 0.0
2015-Jul-27 19:32N 58°56' E 005°35'0 0.0
2015-Jul-27 18:32N 58°56' E 005°35'0 0.0
2015-Jul-27 17:33N 58°56' E 005°35'0 0.0
2015-Jul-27 16:29N 58°56' E 005°35'0 0.0
2015-Jul-27 15:30N 58°56' E 005°35'0 0.0
2015-Jul-27 14:27N 58°56' E 005°35'0 0.0
2015-Jul-27 13:32N 58°56' E 005°35'0 0.0
2015-Jul-27 12:32N 58°56' E 005°35'0 0.0
2015-Jul-27 11:32N 58°56' E 005°35'0 0.0
2015-Jul-27 10:32N 58°56' E 005°35'0 0.0
2015-Jul-27 09:31N 58°56' E 005°35'0 0.0
2015-Jul-27 08:23N 58°56' E 005°35'0 0.0
2015-Jul-27 07:26N 58°56' E 005°35'0 0.0
2015-Jul-27 06:29N 58°56' E 005°35'0 0.0
2015-Jul-27 05:33N 58°56' E 005°35'0 0.0
2015-Jul-27 04:25N 58°56' E 005°35'0 0.0
2015-Jul-27 03:29N 58°56' E 005°35'0 0.0
2015-Jul-27 02:28N 58°56' E 005°35'0 0.0
2015-Jul-27 01:33N 58°56' E 005°35'0 0.0
2015-Jul-27 00:27N 58°56' E 005°35'0 0.0
2015-Jul-26 23:31N 58°56' E 005°35'0 0.0
2015-Jul-26 22:32N 58°56' E 005°35'0 0.0
2015-Jul-26 21:31N 58°56' E 005°35'0 0.0
2015-Jul-26 20:33N 58°56' E 005°35'0 0.0
2015-Jul-26 19:33N 58°56' E 005°35'0 0.0
2015-Jul-26 18:28N 58°56' E 005°35'0 0.0
2015-Jul-26 17:33N 58°56' E 005°35'0 0.0
2015-Jul-26 16:29N 58°56' E 005°35'0 0.0
2015-Jul-26 15:33N 58°56' E 005°35'0 0.0
2015-Jul-26 13:31N 58°56' E 005°35'0 0.0
2015-Jul-26 12:33N 58°56' E 005°35'0 0.0
2015-Jul-26 11:32N 58°56' E 005°35'0 0.0
2015-Jul-26 10:31N 58°56' E 005°35'0 0.0
2015-Jul-26 09:31N 58°56' E 005°35'0 0.0
2015-Jul-26 08:33N 58°56' E 005°35'0 0.0
2015-Jul-26 07:31N 58°56' E 005°35'0 0.0
2015-Jul-26 06:29N 58°56' E 005°35'0 0.0
2015-Jul-26 05:33N 58°56' E 005°35'0 0.0
2015-Jul-26 04:32N 58°56' E 005°35'0 0.0
2015-Jul-26 03:33N 58°56' E 005°35'0 0.0
2015-Jul-26 02:27N 58°56' E 005°35'0 0.0
2015-Jul-26 01:25N 58°56' E 005°35'0 0.0
2015-Jul-26 00:30N 58°56' E 005°35'0 0.0
2015-Jul-25 23:24N 58°56' E 005°35'0 0.0
2015-Jul-25 22:28N 58°56' E 005°35'0 0.0
2015-Jul-25 21:27N 58°56' E 005°35'0 0.0
2015-Jul-25 20:32N 58°56' E 005°35'0 0.0
2015-Jul-25 19:33N 58°56' E 005°35'0 0.0
2015-Jul-25 18:32N 58°56' E 005°35'0 0.0
2015-Jul-25 17:32N 58°56' E 005°35'0 0.0
2015-Jul-25 16:29N 58°56' E 005°35'0 0.0
2015-Jul-25 15:23N 58°56' E 005°35'0 0.0
2015-Jul-25 14:31N 58°56' E 005°35'4 4.6
2015-Jul-25 13:34N 58°52' E 005°31'6 6.4
2015-Jul-25 12:33N 58°46' E 005°24'178 9.9
2015-Jul-24 18:33N 55°57' E 007°05'2410.5
2015-Jul-24 16:14N 55°34' E 007°20'710.1
2015-Jul-24 15:33N 55°31' E 007°30'10 9.8
2015-Jul-24 14:33N 55°26' E 007°45'9 9.3
2015-Jul-24 13:33N 55°26' E 008°02'2 1.4
2015-Jul-24 12:27N 55°26' E 008°05'0 0.0
2015-Jul-24 11:27N 55°26' E 008°05'0 0.0
2015-Jul-24 09:08N 55°26' E 008°05'0 0.0
2015-Jul-24 08:29N 55°26' E 008°05'0 0.0
2015-Jul-24 07:30N 55°26' E 008°05'0 0.0
2015-Jul-24 06:20N 55°26' E 008°05'0 0.0
2015-Jul-24 05:31N 55°26' E 008°05'0 0.0
2015-Jul-24 03:17N 55°26' E 008°05'0 0.0
2015-Jul-24 01:22N 55°26' E 008°05'0 0.0
2015-Jul-24 00:32N 55°26' E 008°05'0 0.0
2015-Jul-23 22:22N 55°26' E 008°05'0 0.0
2015-Jul-23 21:33N 55°26' E 008°05'0 0.0
2015-Jul-23 14:09N 55°26' E 008°05'0 0.0
2015-Jul-23 12:27N 55°26' E 008°05'0 0.0
2015-Jul-23 11:27N 55°26' E 008°05'0 0.0
2015-Jul-23 10:27N 55°26' E 008°05'0 0.0
2015-Jul-23 08:16N 55°26' E 008°05'0 0.0
2015-Jul-23 07:09N 55°26' E 008°05'0 0.0
2015-Jul-23 05:19N 55°26' E 008°05'0 0.0
2015-Jul-23 04:30N 55°26' E 008°05'0 0.0
2015-Jul-23 03:24N 55°26' E 008°05'0 0.0
2015-Jul-23 02:30N 55°26' E 008°05'0 0.0
2015-Jul-23 01:33N 55°26' E 008°05'0 0.0
2015-Jul-23 00:30N 55°26' E 008°05'0 0.0
2015-Jul-22 23:12N 55°26' E 008°05'0 0.0
2015-Jul-22 22:05N 55°26' E 008°05'0 0.0
2015-Jul-22 20:23N 55°26' E 008°05'0 0.0
2015-Jul-22 19:26N 55°26' E 008°05'0 0.0
2015-Jul-22 14:21N 55°26' E 008°05'0 0.0
2015-Jul-22 13:32N 55°26' E 008°05'0 0.0
2015-Jul-22 12:29N 55°26' E 008°05'0 0.0
2015-Jul-22 11:30N 55°26' E 008°05'0 0.0
2015-Jul-22 10:12N 55°26' E 008°05'0 0.0
2015-Jul-22 09:28N 55°26' E 008°05'0 0.0
2015-Jul-22 08:19N 55°26' E 008°04'0 0.0
2015-Jul-22 07:20N 55°26' E 008°04'0 0.0
2015-Jul-22 06:27N 55°26' E 008°04'0 0.0
2015-Jul-22 05:25N 55°26' E 008°04'0 0.0
2015-Jul-22 04:20N 55°27' E 008°04'0 0.0
2015-Jul-22 03:31N 55°26' E 008°04'0 0.0
2015-Jul-22 02:27N 55°26' E 008°05'0 0.0
2015-Jul-22 00:31N 55°26' E 008°05'0 0.0
2015-Jul-21 23:31N 55°26' E 008°05'0 0.0
2015-Jul-21 22:23N 55°26' E 008°05'0 0.0
2015-Jul-21 21:33N 55°26' E 008°05'0 0.0
2015-Jul-21 20:27N 55°26' E 008°05'0 0.0
2015-Jul-21 19:32N 55°26' E 008°05'0 0.0
2015-Jul-21 18:15N 55°26' E 008°05'0 0.0
2015-Jul-21 17:03N 55°26' E 008°05'0 0.0
2015-Jul-21 13:33N 55°26' E 008°05'0 0.0
2015-Jul-21 11:14N 55°26' E 008°05'0 0.0
2015-Jul-21 10:22N 55°26' E 008°05'0 0.0
2015-Jul-21 09:26N 55°26' E 008°05'0 0.0
2015-Jul-21 07:10N 55°27' E 008°04'0 0.0
2015-Jul-21 06:06N 55°26' E 008°05'0 0.0
2015-Jul-20 23:32N 55°26' E 008°04'0 0.0
2015-Jul-20 22:19N 55°26' E 008°04'0 0.0
2015-Jul-20 20:29N 55°26' E 008°05'0 0.0
2015-Jul-20 19:32N 55°26' E 008°04'0 0.0
2015-Jul-20 18:26N 55°26' E 008°04'0 0.0
2015-Jul-20 16:30N 55°26' E 008°05'0 0.0
2015-Jul-20 12:30N 55°26' E 008°05'0 0.0
2015-Jul-20 07:10N 55°26' E 008°05'0 0.0
2015-Jul-20 02:30N 55°26' E 008°05'0 0.0
2015-Jul-20 01:30N 55°26' E 008°05'0 0.0
2015-Jul-20 00:26N 55°26' E 008°05'0 0.0
2015-Jul-19 22:03N 55°26' E 008°05'0 0.0
2015-Jul-19 21:07N 55°26' E 008°05'0 0.0
2015-Jul-19 20:28N 55°26' E 008°05'0 0.0
2015-Jul-19 19:32N 55°26' E 008°04'0 0.0
2015-Jul-19 18:20N 55°27' E 008°04'0 0.0
2015-Jul-19 17:32N 55°27' E 008°04'0 0.0
2015-Jul-19 16:12N 55°26' E 008°04'0 0.0
2015-Jul-19 15:25N 55°27' E 008°04'0 0.0
2015-Jul-19 12:20N 55°26' E 008°04'0 0.0
2015-Jul-19 11:09N 55°26' E 008°05'0 0.0
2015-Jul-19 10:27N 55°26' E 008°05'0 0.0
2015-Jul-19 09:33N 55°26' E 008°05'0 0.0
2015-Jul-19 08:32N 55°26' E 008°05'0 0.0
2015-Jul-19 07:25N 55°26' E 008°05'0 0.0
2015-Jul-19 06:32N 55°26' E 008°04'0 0.0
2015-Jul-19 05:28N 55°26' E 008°04'0 0.0
2015-Jul-19 04:33N 55°26' E 008°04'0 0.0
2015-Jul-19 00:08N 55°26' E 008°05'0 0.0
2015-Jul-18 23:26N 55°26' E 008°05'0 0.0
2015-Jul-18 22:29N 55°26' E 008°05'0 0.0
2015-Jul-18 21:30N 55°26' E 008°05'0 0.0
2015-Jul-18 20:25N 55°26' E 008°05'0 0.0
2015-Jul-18 19:24N 55°26' E 008°05'0 0.0
2015-Jul-18 18:12N 55°26' E 008°05'0 0.0
2015-Jul-18 17:22N 55°26' E 008°05'0 0.0
2015-Jul-18 16:26N 55°26' E 008°05'0 0.0
2015-Jul-18 14:07N 55°26' E 008°04'0 0.0
2015-Jul-18 12:25N 55°26' E 008°04'2 2.7
2015-Jul-18 11:33N 55°26' E 008°09'7 7.5
2015-Jul-18 10:33N 55°29' E 008°21'4 3.2
2015-Jul-18 09:26N 55°27' E 008°27'0 0.0
2015-Jul-18 08:28N 55°27' E 008°27'0 0.0
2015-Jul-18 07:17N 55°27' E 008°27'0 0.0
2015-Jul-18 06:33N 55°27' E 008°27'0 0.0
2015-Jul-18 05:31N 55°27' E 008°27'0 0.0
2015-Jul-18 04:30N 55°27' E 008°27'0 0.0
2015-Jul-18 03:28N 55°27' E 008°27'0 0.0
2015-Jul-18 02:27N 55°27' E 008°27'  

Dump ship's entire track history